sensor_id;sensor_type;location;lat;lon;timestamp;P1;durP1;ratioP1;P2;durP2;ratioP2
78298;SDS011;67556;55.656;12.590;2023-07-13T00:02:29;5.60;;;2.90;;
78298;SDS011;67556;55.656;12.590;2023-07-13T00:04:55;5.88;;;2.70;;
78298;SDS011;67556;55.656;12.590;2023-07-13T00:07:22;5.30;;;2.90;;
78298;SDS011;67556;55.656;12.590;2023-07-13T00:09:49;5.50;;;2.90;;
78298;SDS011;67556;55.656;12.590;2023-07-13T00:12:31;4.80;;;2.58;;
78298;SDS011;67556;55.656;12.590;2023-07-13T00:15:03;6.63;;;2.80;;
78298;SDS011;67556;55.656;12.590;2023-07-13T00:17:43;5.45;;;2.90;;
78298;SDS011;67556;55.656;12.590;2023-07-13T00:20:10;4.32;;;2.58;;
78298;SDS011;67556;55.656;12.590;2023-07-13T00:22:39;4.05;;;2.40;;
78298;SDS011;67556;55.656;12.590;2023-07-13T00:25:06;8.98;;;3.30;;
78298;SDS011;67556;55.656;12.590;2023-07-13T00:27:41;5.15;;;2.83;;
78298;SDS011;67556;55.656;12.590;2023-07-13T00:30:15;6.80;;;2.80;;
78298;SDS011;67556;55.656;12.590;2023-07-13T00:32:42;4.90;;;2.40;;
78298;SDS011;67556;55.656;12.590;2023-07-13T00:35:15;3.40;;;2.80;;
78298;SDS011;67556;55.656;12.590;2023-07-13T00:37:56;6.47;;;2.70;;
78298;SDS011;67556;55.656;12.590;2023-07-13T00:40:29;9.38;;;2.72;;
78298;SDS011;67556;55.656;12.590;2023-07-13T00:42:57;5.68;;;2.60;;
78298;SDS011;67556;55.656;12.590;2023-07-13T00:48:41;6.90;;;3.15;;
78298;SDS011;67556;55.656;12.590;2023-07-13T00:51:11;6.25;;;3.00;;
78298;SDS011;67556;55.656;12.590;2023-07-13T00:53:38;6.70;;;2.83;;
78298;SDS011;67556;55.656;12.590;2023-07-13T00:56:04;5.68;;;2.85;;
78298;SDS011;67556;55.656;12.590;2023-07-13T00:58:32;6.43;;;2.88;;
78298;SDS011;67556;55.656;12.590;2023-07-13T01:00:59;4.97;;;2.80;;
78298;SDS011;67556;55.656;12.590;2023-07-13T01:03:26;5.60;;;2.83;;
78298;SDS011;67556;55.656;12.590;2023-07-13T01:05:54;7.28;;;2.90;;
78298;SDS011;67556;55.656;12.590;2023-07-13T01:08:21;4.97;;;2.95;;
78298;SDS011;67556;55.656;12.590;2023-07-13T01:10:52;4.28;;;2.80;;
78298;SDS011;67556;55.656;12.590;2023-07-13T01:13:19;4.82;;;3.03;;
78298;SDS011;67556;55.656;12.590;2023-07-13T01:15:46;5.45;;;2.67;;
78298;SDS011;67556;55.656;12.590;2023-07-13T01:18:14;7.55;;;3.10;;
78298;SDS011;67556;55.656;12.590;2023-07-13T01:20:47;5.70;;;3.00;;
78298;SDS011;67556;55.656;12.590;2023-07-13T01:23:16;5.68;;;3.45;;
78298;SDS011;67556;55.656;12.590;2023-07-13T01:25:44;3.78;;;2.80;;
78298;SDS011;67556;55.656;12.590;2023-07-13T01:28:10;6.00;;;3.50;;
78298;SDS011;67556;55.656;12.590;2023-07-13T01:30:37;6.13;;;3.10;;
78298;SDS011;67556;55.656;12.590;2023-07-13T01:33:05;5.63;;;3.00;;
78298;SDS011;67556;55.656;12.590;2023-07-13T01:35:32;4.80;;;2.95;;
78298;SDS011;67556;55.656;12.590;2023-07-13T01:38:00;7.50;;;3.20;;
78298;SDS011;67556;55.656;12.590;2023-07-13T01:40:28;5.72;;;3.13;;
78298;SDS011;67556;55.656;12.590;2023-07-13T01:42:55;7.20;;;2.97;;
78298;SDS011;67556;55.656;12.590;2023-07-13T01:45:22;5.30;;;2.85;;
78298;SDS011;67556;55.656;12.590;2023-07-13T01:47:48;5.10;;;3.03;;
78298;SDS011;67556;55.656;12.590;2023-07-13T01:50:15;5.18;;;2.65;;
78298;SDS011;67556;55.656;12.590;2023-07-13T01:52:41;7.35;;;3.50;;
78298;SDS011;67556;55.656;12.590;2023-07-13T01:55:09;6.05;;;2.83;;
78298;SDS011;67556;55.656;12.590;2023-07-13T01:57:36;4.53;;;2.92;;
78298;SDS011;67556;55.656;12.590;2023-07-13T02:00:03;6.28;;;3.20;;
78298;SDS011;67556;55.656;12.590;2023-07-13T02:02:31;7.75;;;3.60;;
78298;SDS011;67556;55.656;12.590;2023-07-13T02:04:58;4.63;;;2.75;;
78298;SDS011;67556;55.656;12.590;2023-07-13T02:07:25;9.38;;;3.90;;
78298;SDS011;67556;55.656;12.590;2023-07-13T02:09:52;5.05;;;2.90;;
78298;SDS011;67556;55.656;12.590;2023-07-13T02:12:20;8.13;;;3.60;;
78298;SDS011;67556;55.656;12.590;2023-07-13T02:14:46;6.38;;;3.15;;
78298;SDS011;67556;55.656;12.590;2023-07-13T02:17:13;6.05;;;3.55;;
78298;SDS011;67556;55.656;12.590;2023-07-13T02:19:39;6.38;;;3.00;;
78298;SDS011;67556;55.656;12.590;2023-07-13T02:22:06;7.05;;;3.28;;
78298;SDS011;67556;55.656;12.590;2023-07-13T02:24:33;5.85;;;3.20;;
78298;SDS011;67556;55.656;12.590;2023-07-13T02:26:59;7.25;;;3.50;;
78298;SDS011;67556;55.656;12.590;2023-07-13T02:29:27;4.82;;;2.92;;
78298;SDS011;67556;55.656;12.590;2023-07-13T02:31:53;5.25;;;3.17;;
78298;SDS011;67556;55.656;12.590;2023-07-13T02:34:19;6.55;;;3.75;;
78298;SDS011;67556;55.656;12.590;2023-07-13T02:36:46;4.97;;;2.88;;
78298;SDS011;67556;55.656;12.590;2023-07-13T02:39:13;11.00;;;3.63;;
78298;SDS011;67556;55.656;12.590;2023-07-13T02:41:40;6.28;;;3.33;;
78298;SDS011;67556;55.656;12.590;2023-07-13T02:44:06;8.32;;;3.47;;
78298;SDS011;67556;55.656;12.590;2023-07-13T02:46:35;9.55;;;3.30;;
78298;SDS011;67556;55.656;12.590;2023-07-13T02:49:03;6.07;;;3.00;;
78298;SDS011;67556;55.656;12.590;2023-07-13T02:51:30;4.95;;;3.30;;
78298;SDS011;67556;55.656;12.590;2023-07-13T02:53:58;8.55;;;3.08;;
78298;SDS011;67556;55.656;12.590;2023-07-13T02:56:26;9.70;;;3.63;;
78298;SDS011;67556;55.656;12.590;2023-07-13T02:58:53;7.05;;;3.05;;
78298;SDS011;67556;55.656;12.590;2023-07-13T03:01:20;5.00;;;3.30;;
78298;SDS011;67556;55.656;12.590;2023-07-13T03:03:49;4.63;;;3.15;;
78298;SDS011;67556;55.656;12.590;2023-07-13T03:06:17;7.13;;;3.15;;
78298;SDS011;67556;55.656;12.590;2023-07-13T03:08:44;5.93;;;3.08;;
78298;SDS011;67556;55.656;12.590;2023-07-13T03:11:15;5.25;;;3.00;;
78298;SDS011;67556;55.656;12.590;2023-07-13T03:13:43;10.95;;;3.58;;
78298;SDS011;67556;55.656;12.590;2023-07-13T03:16:10;9.48;;;3.22;;
78298;SDS011;67556;55.656;12.590;2023-07-13T03:18:37;7.50;;;3.15;;
78298;SDS011;67556;55.656;12.590;2023-07-13T03:21:05;5.90;;;3.45;;
78298;SDS011;67556;55.656;12.590;2023-07-13T03:23:32;6.45;;;3.40;;
78298;SDS011;67556;55.656;12.590;2023-07-13T03:26:04;10.40;;;3.38;;
78298;SDS011;67556;55.656;12.590;2023-07-13T03:28:31;6.22;;;4.03;;
78298;SDS011;67556;55.656;12.590;2023-07-13T03:31:02;7.75;;;3.35;;
78298;SDS011;67556;55.656;12.590;2023-07-13T03:33:29;4.60;;;2.90;;
78298;SDS011;67556;55.656;12.590;2023-07-13T03:35:57;7.47;;;3.10;;
78298;SDS011;67556;55.656;12.590;2023-07-13T03:38:25;6.20;;;3.22;;
78298;SDS011;67556;55.656;12.590;2023-07-13T03:40:52;8.25;;;3.22;;
78298;SDS011;67556;55.656;12.590;2023-07-13T03:43:19;5.28;;;3.33;;
78298;SDS011;67556;55.656;12.590;2023-07-13T03:45:45;4.70;;;3.15;;
78298;SDS011;67556;55.656;12.590;2023-07-13T03:48:12;4.65;;;3.50;;
78298;SDS011;67556;55.656;12.590;2023-07-13T03:50:38;7.00;;;3.60;;
78298;SDS011;67556;55.656;12.590;2023-07-13T03:53:06;5.10;;;3.10;;
78298;SDS011;67556;55.656;12.590;2023-07-13T03:55:34;8.25;;;3.58;;
78298;SDS011;67556;55.656;12.590;2023-07-13T03:58:05;10.95;;;3.70;;
78298;SDS011;67556;55.656;12.590;2023-07-13T04:00:51;5.88;;;3.30;;
78298;SDS011;67556;55.656;12.590;2023-07-13T04:03:18;6.18;;;3.35;;
78298;SDS011;67556;55.656;12.590;2023-07-13T04:05:44;5.20;;;3.35;;
78298;SDS011;67556;55.656;12.590;2023-07-13T04:08:11;5.85;;;3.20;;
78298;SDS011;67556;55.656;12.590;2023-07-13T04:10:39;6.40;;;3.17;;
78298;SDS011;67556;55.656;12.590;2023-07-13T04:13:05;6.53;;;3.20;;
78298;SDS011;67556;55.656;12.590;2023-07-13T04:15:32;5.75;;;3.38;;
78298;SDS011;67556;55.656;12.590;2023-07-13T04:17:58;7.40;;;3.30;;
78298;SDS011;67556;55.656;12.590;2023-07-13T04:20:25;6.47;;;3.38;;
78298;SDS011;67556;55.656;12.590;2023-07-13T04:22:52;5.43;;;2.88;;
78298;SDS011;67556;55.656;12.590;2023-07-13T04:25:20;5.68;;;3.30;;
78298;SDS011;67556;55.656;12.590;2023-07-13T04:27:49;8.00;;;3.47;;
78298;SDS011;67556;55.656;12.590;2023-07-13T04:30:15;5.20;;;3.30;;
78298;SDS011;67556;55.656;12.590;2023-07-13T04:32:42;6.95;;;3.70;;
78298;SDS011;67556;55.656;12.590;2023-07-13T04:35:08;7.80;;;3.20;;
78298;SDS011;67556;55.656;12.590;2023-07-13T04:37:35;11.73;;;4.00;;
78298;SDS011;67556;55.656;12.590;2023-07-13T04:40:01;4.82;;;3.10;;
78298;SDS011;67556;55.656;12.590;2023-07-13T04:42:29;9.20;;;3.80;;
78298;SDS011;67556;55.656;12.590;2023-07-13T04:44:57;8.68;;;3.25;;
78298;SDS011;67556;55.656;12.590;2023-07-13T04:47:23;8.73;;;3.58;;
78298;SDS011;67556;55.656;12.590;2023-07-13T04:49:50;9.43;;;3.53;;
78298;SDS011;67556;55.656;12.590;2023-07-13T04:52:17;7.60;;;3.25;;
78298;SDS011;67556;55.656;12.590;2023-07-13T04:54:49;6.15;;;3.22;;
78298;SDS011;67556;55.656;12.590;2023-07-13T04:57:21;8.32;;;3.72;;
78298;SDS011;67556;55.656;12.590;2023-07-13T04:59:48;4.47;;;3.13;;
78298;SDS011;67556;55.656;12.590;2023-07-13T05:02:15;7.88;;;3.28;;
78298;SDS011;67556;55.656;12.590;2023-07-13T05:04:42;5.97;;;3.40;;
78298;SDS011;67556;55.656;12.590;2023-07-13T05:07:09;7.53;;;3.45;;
78298;SDS011;67556;55.656;12.590;2023-07-13T05:09:36;7.60;;;3.60;;
78298;SDS011;67556;55.656;12.590;2023-07-13T05:12:03;6.25;;;3.38;;
78298;SDS011;67556;55.656;12.590;2023-07-13T05:14:30;7.32;;;3.70;;
78298;SDS011;67556;55.656;12.590;2023-07-13T05:16:56;5.85;;;3.28;;
78298;SDS011;67556;55.656;12.590;2023-07-13T05:19:24;8.48;;;3.53;;
78298;SDS011;67556;55.656;12.590;2023-07-13T05:21:50;7.20;;;3.45;;
78298;SDS011;67556;55.656;12.590;2023-07-13T05:24:17;6.63;;;3.15;;
78298;SDS011;67556;55.656;12.590;2023-07-13T05:26:43;5.22;;;3.30;;
78298;SDS011;67556;55.656;12.590;2023-07-13T05:29:10;5.80;;;2.95;;
78298;SDS011;67556;55.656;12.590;2023-07-13T05:31:37;5.15;;;3.42;;
78298;SDS011;67556;55.656;12.590;2023-07-13T05:34:03;6.65;;;3.65;;
78298;SDS011;67556;55.656;12.590;2023-07-13T05:36:31;5.85;;;3.25;;
78298;SDS011;67556;55.656;12.590;2023-07-13T05:38:58;7.10;;;3.92;;
78298;SDS011;67556;55.656;12.590;2023-07-13T05:41:24;3.72;;;3.28;;
78298;SDS011;67556;55.656;12.590;2023-07-13T05:43:50;5.45;;;3.05;;
78298;SDS011;67556;55.656;12.590;2023-07-13T05:46:17;6.47;;;2.90;;
78298;SDS011;67556;55.656;12.590;2023-07-13T05:48:43;8.70;;;3.53;;
78298;SDS011;67556;55.656;12.590;2023-07-13T05:51:09;6.32;;;3.17;;
78298;SDS011;67556;55.656;12.590;2023-07-13T05:53:37;5.63;;;3.20;;
78298;SDS011;67556;55.656;12.590;2023-07-13T05:56:04;3.45;;;3.10;;
78298;SDS011;67556;55.656;12.590;2023-07-13T05:58:30;6.15;;;3.45;;
78298;SDS011;67556;55.656;12.590;2023-07-13T06:01:01;7.30;;;2.90;;
78298;SDS011;67556;55.656;12.590;2023-07-13T06:03:29;6.55;;;3.30;;
78298;SDS011;67556;55.656;12.590;2023-07-13T06:05:56;6.50;;;3.25;;
78298;SDS011;67556;55.656;12.590;2023-07-13T06:08:22;7.25;;;3.28;;
78298;SDS011;67556;55.656;12.590;2023-07-13T06:10:50;8.45;;;3.88;;
78298;SDS011;67556;55.656;12.590;2023-07-13T06:13:16;8.50;;;3.28;;
78298;SDS011;67556;55.656;12.590;2023-07-13T06:15:47;8.25;;;3.33;;
78298;SDS011;67556;55.656;12.590;2023-07-13T06:18:14;5.50;;;3.50;;
78298;SDS011;67556;55.656;12.590;2023-07-13T06:20:40;5.97;;;3.55;;
78298;SDS011;67556;55.656;12.590;2023-07-13T06:23:06;6.68;;;3.40;;
78298;SDS011;67556;55.656;12.590;2023-07-13T06:25:33;7.53;;;3.40;;
78298;SDS011;67556;55.656;12.590;2023-07-13T06:28:01;6.50;;;3.50;;
78298;SDS011;67556;55.656;12.590;2023-07-13T06:30:28;7.45;;;4.05;;
78298;SDS011;67556;55.656;12.590;2023-07-13T06:32:55;6.28;;;2.75;;
78298;SDS011;67556;55.656;12.590;2023-07-13T06:35:21;9.27;;;3.40;;
78298;SDS011;67556;55.656;12.590;2023-07-13T06:37:47;5.15;;;3.10;;
78298;SDS011;67556;55.656;12.590;2023-07-13T06:40:14;5.20;;;3.28;;
78298;SDS011;67556;55.656;12.590;2023-07-13T06:42:40;5.60;;;3.28;;
78298;SDS011;67556;55.656;12.590;2023-07-13T06:45:08;3.72;;;3.00;;
78298;SDS011;67556;55.656;12.590;2023-07-13T06:47:35;6.32;;;3.28;;
78298;SDS011;67556;55.656;12.590;2023-07-13T06:50:01;6.10;;;3.05;;
78298;SDS011;67556;55.656;12.590;2023-07-13T06:52:28;8.88;;;3.55;;
78298;SDS011;67556;55.656;12.590;2023-07-13T06:54:54;6.00;;;3.60;;
78298;SDS011;67556;55.656;12.590;2023-07-13T06:57:21;6.97;;;3.47;;
78298;SDS011;67556;55.656;12.590;2023-07-13T06:59:48;5.55;;;3.35;;
78298;SDS011;67556;55.656;12.590;2023-07-13T07:02:15;6.72;;;3.33;;
78298;SDS011;67556;55.656;12.590;2023-07-13T07:04:42;5.30;;;3.25;;
78298;SDS011;67556;55.656;12.590;2023-07-13T07:07:08;5.90;;;3.00;;
78298;SDS011;67556;55.656;12.590;2023-07-13T07:09:35;7.53;;;3.33;;
78298;SDS011;67556;55.656;12.590;2023-07-13T07:12:02;5.35;;;2.80;;
78298;SDS011;67556;55.656;12.590;2023-07-13T07:14:28;5.45;;;3.08;;
78298;SDS011;67556;55.656;12.590;2023-07-13T07:16:55;9.80;;;3.17;;
78298;SDS011;67556;55.656;12.590;2023-07-13T07:19:24;8.15;;;3.25;;
78298;SDS011;67556;55.656;12.590;2023-07-13T07:21:51;5.07;;;3.08;;
78298;SDS011;67556;55.656;12.590;2023-07-13T07:24:17;5.93;;;3.22;;
78298;SDS011;67556;55.656;12.590;2023-07-13T07:26:44;5.53;;;2.97;;
78298;SDS011;67556;55.656;12.590;2023-07-13T07:29:10;6.47;;;3.22;;
78298;SDS011;67556;55.656;12.590;2023-07-13T07:31:37;4.70;;;2.40;;
78298;SDS011;67556;55.656;12.590;2023-07-13T07:34:03;8.77;;;3.33;;
78298;SDS011;67556;55.656;12.590;2023-07-13T07:36:33;6.43;;;2.70;;
78298;SDS011;67556;55.656;12.590;2023-07-13T07:39:00;6.15;;;2.85;;
78298;SDS011;67556;55.656;12.590;2023-07-13T07:41:27;6.38;;;3.20;;
78298;SDS011;67556;55.656;12.590;2023-07-13T07:43:54;4.55;;;2.55;;
78298;SDS011;67556;55.656;12.590;2023-07-13T07:46:22;4.30;;;2.55;;
78298;SDS011;67556;55.656;12.590;2023-07-13T07:48:51;4.25;;;2.67;;
78298;SDS011;67556;55.656;12.590;2023-07-13T07:51:17;4.53;;;2.92;;
78298;SDS011;67556;55.656;12.590;2023-07-13T07:53:45;6.25;;;2.92;;
78298;SDS011;67556;55.656;12.590;2023-07-13T07:56:12;4.20;;;2.80;;
78298;SDS011;67556;55.656;12.590;2023-07-13T07:58:38;5.32;;;2.83;;
78298;SDS011;67556;55.656;12.590;2023-07-13T08:01:05;5.78;;;2.78;;
78298;SDS011;67556;55.656;12.590;2023-07-13T08:03:32;6.30;;;2.88;;
78298;SDS011;67556;55.656;12.590;2023-07-13T08:05:59;4.05;;;2.33;;
78298;SDS011;67556;55.656;12.590;2023-07-13T08:08:26;3.38;;;2.20;;
78298;SDS011;67556;55.656;12.590;2023-07-13T08:10:53;4.50;;;2.40;;
78298;SDS011;67556;55.656;12.590;2023-07-13T08:13:20;4.78;;;2.22;;
78298;SDS011;67556;55.656;12.590;2023-07-13T08:15:47;5.00;;;2.80;;
78298;SDS011;67556;55.656;12.590;2023-07-13T08:18:15;4.93;;;2.75;;
78298;SDS011;67556;55.656;12.590;2023-07-13T08:20:42;3.38;;;2.50;;
78298;SDS011;67556;55.656;12.590;2023-07-13T08:23:09;6.65;;;2.70;;
78298;SDS011;67556;55.656;12.590;2023-07-13T08:25:40;6.82;;;2.65;;
78298;SDS011;67556;55.656;12.590;2023-07-13T08:28:08;6.30;;;2.78;;
78298;SDS011;67556;55.656;12.590;2023-07-13T08:30:35;7.18;;;3.00;;
78298;SDS011;67556;55.656;12.590;2023-07-13T08:33:02;6.30;;;3.15;;
78298;SDS011;67556;55.656;12.590;2023-07-13T08:35:29;5.45;;;2.53;;
78298;SDS011;67556;55.656;12.590;2023-07-13T08:37:55;4.78;;;3.20;;
78298;SDS011;67556;55.656;12.590;2023-07-13T08:40:24;2.75;;;1.98;;
78298;SDS011;67556;55.656;12.590;2023-07-13T08:42:53;2.88;;;1.70;;
78298;SDS011;67556;55.656;12.590;2023-07-13T08:45:24;6.25;;;2.35;;
78298;SDS011;67556;55.656;12.590;2023-07-13T08:47:56;2.78;;;1.90;;
78298;SDS011;67556;55.656;12.590;2023-07-13T08:50:32;3.55;;;1.95;;
78298;SDS011;67556;55.656;12.590;2023-07-13T08:53:04;4.40;;;2.50;;
78298;SDS011;67556;55.656;12.590;2023-07-13T08:55:34;5.75;;;2.90;;
78298;SDS011;67556;55.656;12.590;2023-07-13T08:58:05;4.15;;;2.42;;
78298;SDS011;67556;55.656;12.590;2023-07-13T09:00:40;4.82;;;2.33;;
78298;SDS011;67556;55.656;12.590;2023-07-13T09:03:18;4.22;;;2.08;;
78298;SDS011;67556;55.656;12.590;2023-07-13T09:05:49;3.55;;;2.40;;
78298;SDS011;67556;55.656;12.590;2023-07-13T09:08:31;4.55;;;2.53;;
78298;SDS011;67556;55.656;12.590;2023-07-13T09:11:08;6.63;;;2.97;;
78298;SDS011;67556;55.656;12.590;2023-07-13T09:13:48;6.55;;;3.95;;
78298;SDS011;67556;55.656;12.590;2023-07-13T09:16:24;3.92;;;2.35;;
78298;SDS011;67556;55.656;12.590;2023-07-13T09:18:51;5.93;;;2.40;;
78298;SDS011;67556;55.656;12.590;2023-07-13T09:21:27;4.63;;;2.55;;
78298;SDS011;67556;55.656;12.590;2023-07-13T09:23:59;3.78;;;3.20;;
78298;SDS011;67556;55.656;12.590;2023-07-13T09:26:28;5.25;;;3.25;;
78298;SDS011;67556;55.656;12.590;2023-07-13T09:28:59;7.55;;;3.35;;
78298;SDS011;67556;55.656;12.590;2023-07-13T09:31:39;6.07;;;3.25;;
78298;SDS011;67556;55.656;12.590;2023-07-13T09:34:12;5.50;;;2.78;;
78298;SDS011;67556;55.656;12.590;2023-07-13T09:36:39;9.20;;;3.08;;
78298;SDS011;67556;55.656;12.590;2023-07-13T09:39:09;7.65;;;3.20;;
78298;SDS011;67556;55.656;12.590;2023-07-13T09:41:41;4.25;;;2.60;;
78298;SDS011;67556;55.656;12.590;2023-07-13T09:44:17;4.50;;;2.72;;
78298;SDS011;67556;55.656;12.590;2023-07-13T09:46:46;7.20;;;2.80;;
78298;SDS011;67556;55.656;12.590;2023-07-13T09:49:23;4.55;;;2.88;;
78298;SDS011;67556;55.656;12.590;2023-07-13T09:51:57;5.13;;;2.70;;
78298;SDS011;67556;55.656;12.590;2023-07-13T09:54:26;5.95;;;2.80;;
78298;SDS011;67556;55.656;12.590;2023-07-13T09:56:54;3.13;;;2.55;;
78298;SDS011;67556;55.656;12.590;2023-07-13T09:59:22;5.25;;;2.35;;
78298;SDS011;67556;55.656;12.590;2023-07-13T10:01:51;5.80;;;2.97;;
78298;SDS011;67556;55.656;12.590;2023-07-13T10:04:19;3.75;;;2.38;;
78298;SDS011;67556;55.656;12.590;2023-07-13T10:06:46;4.35;;;2.30;;
78298;SDS011;67556;55.656;12.590;2023-07-13T10:09:15;4.07;;;2.20;;
78298;SDS011;67556;55.656;12.590;2023-07-13T10:11:42;5.20;;;2.05;;
78298;SDS011;67556;55.656;12.590;2023-07-13T10:14:10;3.67;;;2.00;;
78298;SDS011;67556;55.656;12.590;2023-07-13T10:19:12;2.67;;;1.90;;
78298;SDS011;67556;55.656;12.590;2023-07-13T10:21:43;3.03;;;1.90;;
78298;SDS011;67556;55.656;12.590;2023-07-13T10:24:17;3.60;;;2.00;;
78298;SDS011;67556;55.656;12.590;2023-07-13T10:26:46;4.68;;;2.15;;
78298;SDS011;67556;55.656;12.590;2023-07-13T10:29:18;2.97;;;2.00;;
78298;SDS011;67556;55.656;12.590;2023-07-13T10:31:51;4.05;;;2.22;;
78298;SDS011;67556;55.656;12.590;2023-07-13T10:34:19;3.05;;;2.00;;
78298;SDS011;67556;55.656;12.590;2023-07-13T10:36:46;2.10;;;1.70;;
78298;SDS011;67556;55.656;12.590;2023-07-13T10:39:16;3.20;;;2.17;;
78298;SDS011;67556;55.656;12.590;2023-07-13T10:41:44;4.68;;;2.10;;
78298;SDS011;67556;55.656;12.590;2023-07-13T10:44:18;4.43;;;2.50;;
78298;SDS011;67556;55.656;12.590;2023-07-13T10:46:57;3.40;;;2.00;;
78298;SDS011;67556;55.656;12.590;2023-07-13T10:49:28;2.63;;;1.83;;
78298;SDS011;67556;55.656;12.590;2023-07-13T10:51:57;2.28;;;1.65;;
78298;SDS011;67556;55.656;12.590;2023-07-13T10:54:26;2.20;;;1.48;;
78298;SDS011;67556;55.656;12.590;2023-07-13T10:57:07;2.17;;;1.40;;
78298;SDS011;67556;55.656;12.590;2023-07-13T10:59:41;2.33;;;1.65;;
78298;SDS011;67556;55.656;12.590;2023-07-13T11:02:11;3.08;;;1.50;;
78298;SDS011;67556;55.656;12.590;2023-07-13T11:04:43;2.17;;;1.48;;
78298;SDS011;67556;55.656;12.590;2023-07-13T11:07:18;3.13;;;1.63;;
78298;SDS011;67556;55.656;12.590;2023-07-13T11:09:48;2.03;;;1.52;;
78298;SDS011;67556;55.656;12.590;2023-07-13T11:12:27;2.20;;;1.50;;
78298;SDS011;67556;55.656;12.590;2023-07-13T11:15:16;2.00;;;1.42;;
78298;SDS011;67556;55.656;12.590;2023-07-13T11:17:54;2.72;;;1.65;;
78298;SDS011;67556;55.656;12.590;2023-07-13T11:23:09;4.75;;;3.15;;
78298;SDS011;67556;55.656;12.590;2023-07-13T11:25:44;3.67;;;1.70;;
78298;SDS011;67556;55.656;12.590;2023-07-13T11:28:15;2.08;;;1.70;;
78298;SDS011;67556;55.656;12.590;2023-07-13T11:30:46;5.57;;;1.80;;
78298;SDS011;67556;55.656;12.590;2023-07-13T11:33:15;2.88;;;1.70;;
78298;SDS011;67556;55.656;12.590;2023-07-13T11:35:46;4.88;;;1.77;;
78298;SDS011;67556;55.656;12.590;2023-07-13T11:38:20;4.43;;;1.80;;
78298;SDS011;67556;55.656;12.590;2023-07-13T11:40:48;3.72;;;1.70;;
78298;SDS011;67556;55.656;12.590;2023-07-13T11:43:17;2.65;;;1.60;;
78298;SDS011;67556;55.656;12.590;2023-07-13T11:45:44;2.20;;;1.63;;
78298;SDS011;67556;55.656;12.590;2023-07-13T11:48:20;2.75;;;1.50;;
78298;SDS011;67556;55.656;12.590;2023-07-13T11:50:53;3.15;;;2.00;;
78298;SDS011;67556;55.656;12.590;2023-07-13T11:53:22;4.88;;;1.73;;
78298;SDS011;67556;55.656;12.590;2023-07-13T11:55:52;3.00;;;1.70;;
78298;SDS011;67556;55.656;12.590;2023-07-13T11:58:21;3.75;;;1.92;;
78298;SDS011;67556;55.656;12.590;2023-07-13T12:00:49;3.08;;;1.70;;
78298;SDS011;67556;55.656;12.590;2023-07-13T12:03:17;3.75;;;1.85;;
78298;SDS011;67556;55.656;12.590;2023-07-13T12:05:59;2.95;;;1.70;;
78298;SDS011;67556;55.656;12.590;2023-07-13T12:08:27;3.50;;;1.95;;
78298;SDS011;67556;55.656;12.590;2023-07-13T12:10:58;4.50;;;2.00;;
78298;SDS011;67556;55.656;12.590;2023-07-13T12:13:34;4.47;;;1.92;;
78298;SDS011;67556;55.656;12.590;2023-07-13T12:16:14;5.38;;;2.53;;
78298;SDS011;67556;55.656;12.590;2023-07-13T12:18:43;4.07;;;2.30;;
78298;SDS011;67556;55.656;12.590;2023-07-13T12:21:23;2.55;;;1.80;;
78298;SDS011;67556;55.656;12.590;2023-07-13T12:23:56;3.80;;;1.80;;
78298;SDS011;67556;55.656;12.590;2023-07-13T12:26:22;2.70;;;1.75;;
78298;SDS011;67556;55.656;12.590;2023-07-13T12:28:51;4.82;;;1.98;;
78298;SDS011;67556;55.656;12.590;2023-07-13T12:31:26;2.08;;;1.70;;
78298;SDS011;67556;55.656;12.590;2023-07-13T12:33:58;5.38;;;2.33;;
78298;SDS011;67556;55.656;12.590;2023-07-13T12:36:27;4.70;;;2.20;;
78298;SDS011;67556;55.656;12.590;2023-07-13T12:41:28;5.45;;;1.90;;
78298;SDS011;67556;55.656;12.590;2023-07-13T12:43:55;3.72;;;1.83;;
78298;SDS011;67556;55.656;12.590;2023-07-13T12:46:23;3.90;;;1.80;;
78298;SDS011;67556;55.656;12.590;2023-07-13T12:48:53;4.25;;;2.20;;
78298;SDS011;67556;55.656;12.590;2023-07-13T12:51:21;5.03;;;2.25;;
78298;SDS011;67556;55.656;12.590;2023-07-13T12:53:57;6.80;;;2.47;;
78298;SDS011;67556;55.656;12.590;2023-07-13T12:56:31;4.32;;;1.85;;
78298;SDS011;67556;55.656;12.590;2023-07-13T12:59:02;4.10;;;1.90;;
78298;SDS011;67556;55.656;12.590;2023-07-13T13:01:32;3.20;;;1.83;;
78298;SDS011;67556;55.656;12.590;2023-07-13T13:04:02;3.20;;;1.80;;
78298;SDS011;67556;55.656;12.590;2023-07-13T13:06:32;5.03;;;1.65;;
78298;SDS011;67556;55.656;12.590;2023-07-13T13:09:02;4.15;;;1.60;;
78298;SDS011;67556;55.656;12.590;2023-07-13T13:11:30;3.97;;;1.90;;
78298;SDS011;67556;55.656;12.590;2023-07-13T13:13:57;2.33;;;1.50;;
78298;SDS011;67556;55.656;12.590;2023-07-13T13:16:29;2.35;;;1.45;;
78298;SDS011;67556;55.656;12.590;2023-07-13T13:18:59;2.17;;;1.40;;
78298;SDS011;67556;55.656;12.590;2023-07-13T13:21:31;2.45;;;1.42;;
78298;SDS011;67556;55.656;12.590;2023-07-13T13:23:58;2.80;;;1.70;;
78298;SDS011;67556;55.656;12.590;2023-07-13T13:26:26;2.28;;;1.60;;
78298;SDS011;67556;55.656;12.590;2023-07-13T13:28:52;3.38;;;1.70;;
78298;SDS011;67556;55.656;12.590;2023-07-13T13:31:19;2.65;;;1.60;;
78298;SDS011;67556;55.656;12.590;2023-07-13T13:33:46;2.55;;;1.70;;
78298;SDS011;67556;55.656;12.590;2023-07-13T13:36:17;5.32;;;2.00;;
78298;SDS011;67556;55.656;12.590;2023-07-13T13:38:46;6.78;;;2.13;;
78298;SDS011;67556;55.656;12.590;2023-07-13T13:41:14;5.22;;;1.98;;
78298;SDS011;67556;55.656;12.590;2023-07-13T13:43:42;4.15;;;2.15;;
78298;SDS011;67556;55.656;12.590;2023-07-13T13:46:15;3.83;;;2.15;;
78298;SDS011;67556;55.656;12.590;2023-07-13T13:48:44;4.03;;;1.95;;
78298;SDS011;67556;55.656;12.590;2023-07-13T13:51:13;3.58;;;1.73;;
78298;SDS011;67556;55.656;12.590;2023-07-13T13:53:42;3.08;;;1.70;;
78298;SDS011;67556;55.656;12.590;2023-07-13T13:56:10;3.33;;;1.80;;
78298;SDS011;67556;55.656;12.590;2023-07-13T13:58:37;3.55;;;1.98;;
78298;SDS011;67556;55.656;12.590;2023-07-13T14:01:05;3.30;;;1.70;;
78298;SDS011;67556;55.656;12.590;2023-07-13T14:03:39;3.00;;;1.75;;
78298;SDS011;67556;55.656;12.590;2023-07-13T14:06:07;3.55;;;1.60;;
78298;SDS011;67556;55.656;12.590;2023-07-13T14:08:35;2.78;;;1.60;;
78298;SDS011;67556;55.656;12.590;2023-07-13T14:11:02;4.45;;;1.80;;
78298;SDS011;67556;55.656;12.590;2023-07-13T14:13:30;4.03;;;1.67;;
78298;SDS011;67556;55.656;12.590;2023-07-13T14:16:01;3.05;;;1.65;;
78298;SDS011;67556;55.656;12.590;2023-07-13T14:18:48;3.25;;;1.67;;
78298;SDS011;67556;55.656;12.590;2023-07-13T14:21:16;2.47;;;1.70;;
78298;SDS011;67556;55.656;12.590;2023-07-13T14:23:56;1.90;;;1.50;;
78298;SDS011;67556;55.656;12.590;2023-07-13T14:26:24;3.63;;;1.98;;
78298;SDS011;67556;55.656;12.590;2023-07-13T14:28:53;2.47;;;1.60;;
78298;SDS011;67556;55.656;12.590;2023-07-13T14:31:21;2.55;;;1.70;;
78298;SDS011;67556;55.656;12.590;2023-07-13T14:33:55;3.55;;;1.75;;
78298;SDS011;67556;55.656;12.590;2023-07-13T14:36:25;2.35;;;1.48;;
78298;SDS011;67556;55.656;12.590;2023-07-13T14:38:56;3.47;;;1.90;;
78298;SDS011;67556;55.656;12.590;2023-07-13T14:41:23;3.22;;;1.70;;
78298;SDS011;67556;55.656;12.590;2023-07-13T14:43:50;3.45;;;1.88;;
78298;SDS011;67556;55.656;12.590;2023-07-13T14:46:20;4.18;;;1.80;;
78298;SDS011;67556;55.656;12.590;2023-07-13T14:48:59;3.78;;;1.63;;
78298;SDS011;67556;55.656;12.590;2023-07-13T14:51:28;3.25;;;1.70;;
78298;SDS011;67556;55.656;12.590;2023-07-13T14:53:55;3.35;;;1.98;;
78298;SDS011;67556;55.656;12.590;2023-07-13T14:56:23;3.92;;;2.00;;